createdAt,value
2023-03-03T00:00:00.346Z,100804.81
2023-03-03T00:05:45.681Z,100802.48
2023-03-03T00:10:50.215Z,100804.23
2023-03-03T00:15:55.318Z,100810.08
2023-03-03T00:21:03.586Z,100821.09
2023-03-03T00:26:19.782Z,100828.23
2023-03-03T00:31:31.942Z,100827.35
2023-03-03T00:36:38.423Z,100813.66
2023-03-03T00:41:42.953Z,100816.32
2023-03-03T00:46:47.555Z,100810.73
2023-03-03T00:51:52.504Z,100805.86
2023-03-03T00:56:56.786Z,100797.73
2023-03-03T01:02:01.075Z,100793.03
2023-03-03T01:07:04.741Z,100789.19
2023-03-03T01:12:08.594Z,100786.27
2023-03-03T01:17:14.339Z,100774.67
2023-03-03T01:22:18.065Z,100764.54
2023-03-03T01:27:22.618Z,100759.66
2023-03-03T01:32:26.862Z,100753.39
2023-03-03T01:37:33.611Z,100749.16
2023-03-03T01:42:37.319Z,100742.45
2023-03-03T01:47:45.482Z,100740.61
2023-03-03T01:52:50.987Z,100733.08
2023-03-03T01:58:28.306Z,100731.61
2023-03-03T02:03:34.195Z,100722.04
2023-03-03T02:08:46.024Z,100727.60
2023-03-03T02:13:49.729Z,100724.36
2023-03-03T02:18:53.824Z,100712.39
2023-03-03T02:24:28.822Z,100712.42
2023-03-03T02:29:32.965Z,100726.64
2023-03-03T02:34:53.715Z,100723.92
2023-03-03T02:39:57.555Z,100723.38
2023-03-03T02:45:01.654Z,100719.56
2023-03-03T02:50:06.964Z,100737.73
2023-03-03T02:55:11.166Z,100743.17
2023-03-03T03:00:17.056Z,100757.23
2023-03-03T03:05:21.729Z,100757.41
2023-03-03T03:10:25.798Z,100757.74
2023-03-03T03:15:30.209Z,100749.14
2023-03-03T03:20:43.185Z,100748.08
2023-03-03T03:25:47.224Z,100735.84
2023-03-03T03:30:57.859Z,100727.43
2023-03-03T03:36:03.929Z,100715.58
2023-03-03T03:41:08.539Z,100707.82
2023-03-03T03:46:14.441Z,100716.52
2023-03-03T03:51:18.539Z,100730.44
2023-03-03T03:56:22.814Z,100728.36
2023-03-03T04:01:28.589Z,100734.33
2023-03-03T04:06:36.877Z,100735.95
2023-03-03T04:11:41.745Z,100744.83
2023-03-03T04:16:46.940Z,100745.92
2023-03-03T04:21:52.682Z,100760.11
2023-03-03T04:26:56.566Z,100760.62
2023-03-03T04:32:00.593Z,100756.48
2023-03-03T04:37:04.982Z,100764.73
2023-03-03T04:42:09.402Z,100777.75
2023-03-03T04:47:13.654Z,100772.83
2023-03-03T04:52:18.167Z,100776.34
2023-03-03T04:57:23.587Z,100772.71
2023-03-03T05:02:30.573Z,100766.38
2023-03-03T05:07:37.535Z,100772.27
2023-03-03T05:12:41.220Z,100760.37
2023-03-03T05:17:47.109Z,100754.45
2023-03-03T05:22:52.601Z,100755.17
2023-03-03T05:27:56.935Z,100765.25
2023-03-03T05:33:00.999Z,100755.09
2023-03-03T05:38:05.559Z,100747.70
2023-03-03T05:43:09.385Z,100745.20
2023-03-03T05:48:13.084Z,100757.14
2023-03-03T05:53:16.960Z,100760.00
2023-03-03T05:58:20.693Z,100765.21
2023-03-03T06:03:24.373Z,100767.30
2023-03-03T06:08:29.733Z,100770.29
2023-03-03T06:13:33.725Z,100768.88
2023-03-03T06:18:38.498Z,100768.98
2023-03-03T06:23:42.255Z,100792.91
2023-03-03T06:28:46.068Z,100795.86
2023-03-03T06:33:49.691Z,100806.41
2023-03-03T06:38:53.631Z,100803.88
2023-03-03T06:43:58.759Z,100799.28
2023-03-03T06:49:02.451Z,100792.73
2023-03-03T06:54:18.766Z,100803.40
2023-03-03T06:59:22.822Z,100803.57
2023-03-03T07:04:32.014Z,100812.45
2023-03-03T07:09:35.907Z,100824.61
2023-03-03T07:14:48.063Z,100828.48
2023-03-03T07:19:52.868Z,100836.09
2023-03-03T07:25:03.226Z,100845.35
2023-03-03T07:30:25.798Z,100840.88
2023-03-03T07:35:41.809Z,100836.00
2023-03-03T07:40:52.040Z,100827.38
2023-03-03T07:46:11.242Z,100830.35
2023-03-03T07:51:42.307Z,100831.89
2023-03-03T07:56:47.350Z,100842.58
2023-03-03T08:01:55.540Z,100838.14
2023-03-03T08:07:02.716Z,100831.70
2023-03-03T08:12:25.562Z,100835.33
2023-03-03T08:17:37.365Z,100840.88
2023-03-03T08:22:41.627Z,100839.27
2023-03-03T08:27:45.483Z,100831.55
2023-03-03T08:32:49.645Z,100823.04
2023-03-03T08:37:53.423Z,100821.86
2023-03-03T08:42:58.813Z,100827.34
2023-03-03T08:48:05.622Z,100836.48
2023-03-03T08:53:11.492Z,100844.98
2023-03-03T08:58:16.957Z,100846.76
2023-03-03T09:03:21.357Z,100853.50
2023-03-03T09:08:25.839Z,100859.26
2023-03-03T09:13:31.844Z,100861.11
2023-03-03T09:18:38.314Z,100865.16
2023-03-03T09:23:54.631Z,100867.73
2023-03-03T09:29:10.888Z,100874.52
2023-03-03T09:34:44.857Z,100877.93
2023-03-03T09:39:55.084Z,100874.30
2023-03-03T09:45:20.559Z,100870.36
2023-03-03T09:50:46.216Z,100878.23
2023-03-03T09:56:16.987Z,100878.57
2023-03-03T10:01:33.857Z,100883.65
2023-03-03T10:06:55.594Z,100883.79
2023-03-03T10:12:22.932Z,100879.07
2023-03-03T10:17:33.340Z,100874.09
2023-03-03T10:23:03.188Z,100878.29
2023-03-03T10:28:33.900Z,100876.13
2023-03-03T10:34:04.900Z,100873.23
2023-03-03T10:39:21.306Z,100872.91
2023-03-03T10:44:49.344Z,100868.21
2023-03-03T10:50:18.227Z,100870.27
2023-03-03T10:55:45.509Z,100869.52
2023-03-03T11:00:57.257Z,100864.33
2023-03-03T11:06:24.763Z,100847.38
2023-03-03T11:12:00.835Z,100843.37
2023-03-03T11:17:11.466Z,100841.55
2023-03-03T11:22:35.246Z,100844.65
2023-03-03T11:28:04.097Z,100845.95
2023-03-03T11:33:13.014Z,100835.30
2023-03-03T11:38:32.900Z,100830.98
2023-03-03T11:43:50.833Z,100831.67
2023-03-03T11:55:31.214Z,100834.81
2023-03-03T12:00:36.509Z,100831.84
2023-03-03T12:06:25.791Z,100830.77
2023-03-03T12:11:49.031Z,100828.29
2023-03-03T12:16:58.868Z,100817.70
2023-03-03T12:22:12.492Z,100814.21
2023-03-03T12:27:57.865Z,100823.02
2023-03-03T12:33:54.438Z,100810.89
2023-03-03T12:39:34.995Z,100810.98
2023-03-03T12:44:51.839Z,100801.18
2023-03-03T12:50:07.422Z,100806.20
2023-03-03T12:56:10.597Z,100798.26
2023-03-03T13:01:28.686Z,100795.85
2023-03-03T13:06:38.026Z,100792.48
2023-03-03T13:12:09.493Z,100792.63
2023-03-03T13:17:35.895Z,100792.73
2023-03-03T13:23:01.075Z,100794.27
2023-03-03T13:28:31.728Z,100798.26
2023-03-03T13:33:36.477Z,100794.58
2023-03-03T13:38:48.527Z,100788.11
2023-03-03T13:44:11.979Z,100789.76
2023-03-03T13:49:21.716Z,100784.89
2023-03-03T13:54:49.720Z,100780.35
2023-03-03T14:00:13.689Z,100775.35
2023-03-03T14:05:45.479Z,100770.23
2023-03-03T14:11:15.224Z,100756.94
2023-03-03T14:16:55.862Z,100755.14
2023-03-03T14:22:15.185Z,100753.73
2023-03-03T14:27:27.861Z,100754.66
2023-03-03T14:32:45.185Z,100758.19
2023-03-03T14:37:51.049Z,100754.78
2023-03-03T14:42:57.142Z,100747.20
2023-03-03T14:48:11.388Z,100745.41
2023-03-03T14:53:24.254Z,100754.09
2023-03-03T14:58:45.184Z,100751.15
2023-03-03T15:04:04.220Z,100745.35
2023-03-03T15:09:37.492Z,100738.62
2023-03-03T15:14:50.557Z,100729.45
2023-03-03T15:19:58.323Z,100726.31
2023-03-03T15:25:24.141Z,100724.86
2023-03-03T15:30:37.036Z,100721.23
2023-03-03T15:36:00.775Z,100718.56
2023-03-03T15:41:09.590Z,100714.91
2023-03-03T15:46:24.693Z,100713.11
2023-03-03T15:51:37.655Z,100714.71
2023-03-03T15:56:53.352Z,100721.77
2023-03-03T16:02:24.617Z,100718.10
2023-03-03T16:07:42.443Z,100718.88
2023-03-03T16:13:36.639Z,100715.73
2023-03-03T16:19:14.254Z,100716.02
2023-03-03T16:25:11.652Z,100715.55
2023-03-03T16:30:43.096Z,100711.46
2023-03-03T16:36:21.186Z,100710.02
2023-03-03T16:41:49.283Z,100718.71
2023-03-03T16:47:28.193Z,100723.11
2023-03-03T16:52:50.509Z,100726.86
2023-03-03T16:58:01.548Z,100727.20
2023-03-03T17:03:52.313Z,100727.16
2023-03-03T17:09:32.594Z,100717.17
2023-03-03T17:14:39.362Z,100717.59
2023-03-03T17:19:50.821Z,100719.37
2023-03-03T17:25:19.078Z,100725.68
2023-03-03T17:30:52.585Z,100734.92
2023-03-03T17:42:46.013Z,100729.25
2023-03-03T17:47:57.751Z,100730.35
2023-03-03T17:53:03.830Z,100729.32
2023-03-03T17:58:28.865Z,100733.27
2023-03-03T18:04:10.307Z,100730.78
2023-03-03T18:09:33.421Z,100729.90
2023-03-03T18:15:08.932Z,100726.17
2023-03-03T18:20:43.882Z,100727.79
2023-03-03T18:26:05.014Z,100736.45
2023-03-03T18:31:26.710Z,100734.38
2023-03-03T18:36:33.247Z,100730.98
2023-03-03T18:42:19.473Z,100729.23
2023-03-03T18:48:08.121Z,100729.74
2023-03-03T18:53:34.745Z,100735.89
2023-03-03T18:58:42.201Z,100738.23
2023-03-03T19:03:48.115Z,100734.38
2023-03-03T19:08:57.891Z,100735.71
2023-03-03T19:14:26.952Z,100737.73
2023-03-03T19:19:35.332Z,100733.25
2023-03-03T19:24:41.405Z,100732.40
2023-03-03T19:29:47.391Z,100737.73
2023-03-03T19:35:10.443Z,100745.61
2023-03-03T19:40:34.144Z,100747.53
2023-03-03T19:46:04.053Z,100740.77
2023-03-03T19:51:29.676Z,100735.77
2023-03-03T19:56:56.813Z,100729.67
2023-03-03T20:02:34.289Z,100725.02
2023-03-03T20:07:46.666Z,100724.65
2023-03-03T20:13:08.497Z,100722.46
2023-03-03T20:18:45.600Z,100723.04
2023-03-03T20:24:07.263Z,100725.34
2023-03-03T20:29:22.939Z,100726.80
2023-03-03T20:35:06.394Z,100723.09
2023-03-03T20:40:28.401Z,100720.63
2023-03-03T20:45:34.077Z,100713.80
2023-03-03T20:51:03.596Z,100716.66
2023-03-03T20:56:23.776Z,100715.27
2023-03-03T21:01:37.577Z,100714.73
2023-03-03T21:06:43.167Z,100705.70
2023-03-03T21:11:50.286Z,100699.56
2023-03-03T21:17:07.503Z,100695.07
2023-03-03T21:22:14.257Z,100688.69
2023-03-03T21:27:27.798Z,100684.32
2023-03-03T21:32:48.505Z,100680.37
2023-03-03T21:37:55.324Z,100670.60
2023-03-03T21:43:00.228Z,100665.77
2023-03-03T21:48:05.995Z,100663.84
2023-03-03T21:53:11.780Z,100645.73
2023-03-03T21:58:16.968Z,100639.98
2023-03-03T22:03:21.218Z,100634.95
2023-03-03T22:08:25.549Z,100637.49
2023-03-03T22:13:29.846Z,100637.91
2023-03-03T22:18:34.124Z,100630.95
2023-03-03T22:23:38.002Z,100619.95
2023-03-03T22:28:44.243Z,100622.16
2023-03-03T22:33:49.064Z,100610.71
2023-03-03T22:38:53.566Z,100603.82
2023-03-03T22:43:57.436Z,100601.46
2023-03-03T22:49:01.386Z,100594.11
2023-03-03T22:54:05.715Z,100586.80
2023-03-03T22:59:10.463Z,100582.92
2023-03-03T23:04:14.624Z,100583.14
2023-03-03T23:09:18.345Z,100576.31
2023-03-03T23:14:24.319Z,100571.33
2023-03-03T23:19:28.582Z,100565.48
2023-03-03T23:24:33.505Z,100557.96
2023-03-03T23:29:38.292Z,100555.39
2023-03-03T23:34:42.761Z,100550.19
2023-03-03T23:39:46.734Z,100541.29
2023-03-03T23:44:51.204Z,100539.02
2023-03-03T23:49:56.448Z,100523.79
2023-03-03T23:55:00.978Z,100507.65
